Time;durP1;ratioP1;P1;durP2;ratioP2;P2;SDS_P1;SDS_P2;PMS_P1;PMS_P2;Temp;Humidity;BMP_temperature;BMP_pressure;BME280_temperature;BME280_humidity;BME280_pressure;Samples;Min_cycle;Max_cycle;Signal;HPM_P1;HPM_P2
2022/11/27 00:01:59;;;;;;;11.45;4.00;;;7.60;87.80;;;;;;5112273;28;20036;-73
2022/11/27 00:04:25;;;;;;;12.50;4.40;;;7.50;87.80;;;;;;5112225;28;20039;-73
2022/11/27 00:06:50;;;;;;;9.40;3.42;;;7.50;87.70;;;;;;5112177;28;20084;-73
2022/11/27 00:09:16;;;;;;;12.75;3.70;;;7.50;87.90;;;;;;5111955;28;20131;-73
2022/11/27 00:11:42;;;;;;;9.27;3.78;;;7.40;87.80;;;;;;5113245;28;20032;-73
2022/11/27 00:14:13;;;;;;;8.05;3.53;;;7.50;88.10;;;;;;5113083;28;20024;-73
2022/11/27 00:16:40;;;;;;;11.10;4.03;;;7.50;87.90;;;;;;5112072;28;20039;-73
2022/11/27 00:19:05;;;;;;;11.02;3.63;;;7.50;87.90;;;;;;5112846;28;20068;-73
2022/11/27 00:21:33;;;;;;;8.98;3.85;;;7.40;87.80;;;;;;5112123;28;20039;-73
2022/11/27 00:24:01;;;;;;;12.02;3.92;;;7.40;87.60;;;;;;5113131;28;20035;-73
2022/11/27 00:26:28;;;;;;;7.43;3.22;;;7.40;88.10;;;;;;5111925;28;20379;-73
2022/11/27 00:28:54;;;;;;;7.88;3.80;;;7.40;88.20;;;;;;5112854;28;20035;-73
2022/11/27 00:31:29;;;;;;;9.95;4.43;;;7.40;88.00;;;;;;5112898;28;20057;-73
2022/11/27 00:33:59;;;;;;;11.40;3.72;;;7.30;87.90;;;;;;5112945;28;20024;-72
2022/11/27 00:36:26;;;;;;;7.75;3.45;;;7.30;87.90;;;;;;5113855;28;20027;-73
2022/11/27 00:38:53;;;;;;;7.50;4.00;;;7.20;87.80;;;;;;5116530;28;20046;-73
2022/11/27 00:41:21;;;;;;;7.88;3.78;;;7.20;88.20;;;;;;5116427;28;20053;-73
2022/11/27 00:43:47;;;;;;;8.38;3.25;;;7.20;88.10;;;;;;5116364;28;20402;-73
2022/11/27 00:46:14;;;;;;;9.45;4.20;;;7.20;88.00;;;;;;5116348;28;20050;-73
2022/11/27 00:48:41;;;;;;;12.05;3.90;;;7.20;88.90;;;;;;5116222;28;20028;-73
2022/11/27 00:51:09;;;;;;;12.43;4.78;;;7.30;87.90;;;;;;5116255;28;20028;-73
2022/11/27 00:53:35;;;;;;;9.40;3.80;;;7.30;88.00;;;;;;5116176;28;20103;-73
2022/11/27 00:56:01;;;;;;;12.32;3.60;;;7.30;88.10;;;;;;5116129;28;20031;-73
2022/11/27 00:58:27;;;;;;;7.47;3.38;;;7.20;87.40;;;;;;5116101;28;20044;-73
2022/11/27 01:00:57;;;;;;;9.32;3.50;;;7.20;87.80;;;;;;5114992;28;20024;-73
2022/11/27 01:03:24;;;;;;;9.30;3.30;;;7.20;87.50;;;;;;5116005;28;20084;-73
2022/11/27 01:05:49;;;;;;;10.55;4.40;;;7.20;87.50;;;;;;5115949;28;20020;-73
2022/11/27 01:08:15;;;;;;;8.45;3.40;;;7.30;87.80;;;;;;5115832;28;20024;-73
2022/11/27 01:10:52;;;;;;;6.10;3.10;;;7.30;87.80;;;;;;5115794;28;20055;-73
2022/11/27 01:13:18;;;;;;;7.75;3.35;;;7.30;87.70;;;;;;5115860;28;20020;-73
2022/11/27 01:15:44;;;;;;;10.75;3.60;;;7.30;88.60;;;;;;5115786;28;20016;-73
2022/11/27 01:18:10;;;;;;;11.35;4.07;;;7.30;87.50;;;;;;5115535;28;20050;-73
2022/11/27 01:20:39;;;;;;;14.00;3.53;;;7.40;87.30;;;;;;5115849;28;20043;-73
2022/11/27 01:23:06;;;;;;;7.68;3.42;;;7.30;86.50;;;;;;5115624;28;20020;-73
2022/11/27 01:25:34;;;;;;;8.60;3.30;;;7.20;86.90;;;;;;5114656;28;20057;-73
2022/11/27 01:28:00;;;;;;;10.70;3.30;;;7.20;87.10;;;;;;5115503;28;20080;-73
2022/11/27 01:30:25;;;;;;;11.00;3.55;;;7.20;86.80;;;;;;5115407;28;20039;-73
2022/11/27 01:32:51;;;;;;;10.65;3.60;;;7.20;87.00;;;;;;5115419;28;20035;-72
2022/11/27 01:35:16;;;;;;;10.63;3.65;;;7.20;86.90;;;;;;5114491;28;20032;-73
2022/11/27 01:37:42;;;;;;;13.13;3.85;;;7.10;86.70;;;;;;5115322;28;20020;-73
2022/11/27 01:40:08;;;;;;;12.25;4.13;;;7.10;86.60;;;;;;5115412;28;20510;-73
2022/11/27 01:42:34;;;;;;;12.07;3.42;;;7.10;86.60;;;;;;5097286;28;20032;-73
2022/11/27 01:44:59;;;;;;;9.95;3.50;;;7.10;86.60;;;;;;5115156;28;20039;-73
2022/11/27 01:47:33;;;;;;;12.45;4.22;;;7.10;86.80;;;;;;5114819;28;20039;-73
2022/11/27 01:50:09;;;;;;;10.40;4.10;;;7.10;86.70;;;;;;5115030;28;20027;-73
2022/11/27 01:52:39;;;;;;;9.20;3.08;;;7.10;86.70;;;;;;5115038;28;20020;-73
2022/11/27 01:55:11;;;;;;;8.80;3.45;;;7.00;86.50;;;;;;5114996;28;20016;-73
2022/11/27 01:57:47;;;;;;;8.63;3.78;;;6.90;86.70;;;;;;5114962;28;20050;-73
2022/11/27 02:00:14;;;;;;;10.43;3.33;;;6.90;87.00;;;;;;5113868;28;20024;-73
2022/11/27 02:02:41;;;;;;;8.40;3.72;;;7.00;87.20;;;;;;5113937;28;20024;-73
2022/11/27 02:05:08;;;;;;;11.90;3.35;;;6.90;87.20;;;;;;5114792;28;20035;-73
2022/11/27 02:07:33;;;;;;;9.75;3.45;;;6.90;87.30;;;;;;5114623;28;20032;-73
2022/11/27 02:09:59;;;;;;;8.00;3.60;;;6.90;87.40;;;;;;5114592;28;20096;-73
2022/11/27 02:12:57;;;;;;;7.80;3.20;;;6.90;87.50;;;;;;5114643;28;20024;-73
2022/11/27 02:15:52;;;;;;;9.52;3.60;;;6.90;87.70;;;;;;5114631;28;20056;-73
2022/11/27 02:18:39;;;;;;;8.23;3.40;;;6.80;87.70;;;;;;5114324;28;20043;-73
2022/11/27 02:21:12;;;;;;;10.85;3.88;;;6.80;87.90;;;;;;5114761;28;20016;-73
2022/11/27 02:24:02;;;;;;;10.50;3.22;;;6.70;88.10;;;;;;5113587;28;20016;-73
2022/11/27 02:26:45;;;;;;;10.50;3.30;;;6.70;88.20;;;;;;5114423;28;20028;-73
2022/11/27 02:29:19;;;;;;;8.80;3.70;;;6.70;88.40;;;;;;5113274;28;20095;-73
2022/11/27 02:32:00;;;;;;;12.98;3.03;;;6.70;88.40;;;;;;5114329;28;20376;-73
2022/11/27 02:34:46;;;;;;;8.52;3.60;;;6.70;88.40;;;;;;5114299;28;20024;-73
2022/11/27 02:37:31;;;;;;;9.98;3.22;;;6.70;88.40;;;;;;5114068;28;20076;-73
2022/11/27 02:40:09;;;;;;;6.72;3.40;;;6.60;88.40;;;;;;5114195;28;20024;-72
2022/11/27 02:42:40;;;;;;;9.88;3.90;;;6.60;88.40;;;;;;5113211;28;20050;-73
2022/11/27 02:45:13;;;;;;;9.15;2.92;;;6.60;88.50;;;;;;5114092;28;20023;-73
2022/11/27 02:47:41;;;;;;;8.52;3.15;;;6.60;88.50;;;;;;5114177;28;20020;-73
2022/11/27 02:50:17;;;;;;;10.00;3.70;;;6.70;88.20;;;;;;5113888;28;20028;-73
2022/11/27 02:52:44;;;;;;;6.95;2.83;;;6.70;88.30;;;;;;5114012;28;20059;-73
2022/11/27 02:55:14;;;;;;;13.02;3.45;;;6.70;88.20;;;;;;5113106;28;20039;-73
2022/11/27 02:57:41;;;;;;;6.72;3.05;;;6.70;88.20;;;;;;5113931;28;20012;-73
2022/11/27 03:00:09;;;;;;;7.60;3.28;;;6.80;87.70;;;;;;5113181;28;20032;-73
2022/11/27 03:02:40;;;;;;;5.47;2.67;;;6.90;88.10;;;;;;5113795;28;20031;-73
2022/11/27 03:05:11;;;;;;;14.83;4.10;;;6.90;87.40;;;;;;5113870;28;20027;-73
2022/11/27 03:07:40;;;;;;;8.75;2.92;;;6.80;87.70;;;;;;5113759;28;20031;-73
2022/11/27 03:10:18;;;;;;;7.72;3.00;;;6.90;87.60;;;;;;5113779;28;20164;-73
2022/11/27 03:12:45;;;;;;;8.98;2.55;;;6.90;87.70;;;;;;5113850;28;20020;-73
2022/11/27 03:15:11;;;;;;;7.72;3.13;;;6.90;87.60;;;;;;5113670;28;20079;-73
2022/11/27 03:17:54;;;;;;;9.27;2.78;;;6.90;87.50;;;;;;5112676;28;20111;-73
2022/11/27 03:20:27;;;;;;;8.02;3.05;;;6.90;88.30;;;;;;5113754;28;20043;-73
2022/11/27 03:22:56;;;;;;;5.93;2.85;;;6.90;87.20;;;;;;5113688;28;20040;-73
2022/11/27 03:25:22;;;;;;;8.23;3.10;;;6.90;88.40;;;;;;5113538;28;20054;-73
2022/11/27 03:27:54;;;;;;;10.80;3.05;;;6.90;87.30;;;;;;5113517;28;20023;-72
2022/11/27 03:30:20;;;;;;;6.32;2.38;;;6.90;87.40;;;;;;5113466;28;20024;-73
2022/11/27 03:32:46;;;;;;;11.68;3.25;;;6.90;87.40;;;;;;5112406;28;20028;-73
2022/11/27 03:35:15;;;;;;;7.22;3.00;;;6.90;87.40;;;;;;5113465;28;20016;-73
2022/11/27 03:37:41;;;;;;;10.13;2.90;;;6.90;87.40;;;;;;5113407;28;20020;-73
2022/11/27 03:40:08;;;;;;;12.55;3.78;;;6.90;87.50;;;;;;5112532;28;20043;-73
2022/11/27 03:42:44;;;;;;;10.13;3.17;;;7.00;87.20;;;;;;5112459;28;20052;-73
2022/11/27 03:45:28;;;;;;;6.38;2.95;;;7.00;86.60;;;;;;5113519;28;20050;-73
2022/11/27 03:48:18;;;;;;;7.20;2.85;;;7.00;87.00;;;;;;5113456;28;20030;-72
2022/11/27 03:51:01;;;;;;;9.45;2.45;;;7.00;87.30;;;;;;5113431;28;20032;-73
2022/11/27 03:53:52;;;;;;;8.75;2.65;;;7.00;87.40;;;;;;5113272;28;20031;-73
2022/11/27 03:56:29;;;;;;;10.13;2.97;;;7.00;87.60;;;;;;5113265;28;20020;-73
2022/11/27 03:59:03;;;;;;;11.20;2.78;;;7.00;87.40;;;;;;5112288;28;20028;-73
2022/11/27 04:01:29;;;;;;;8.75;2.65;;;7.00;87.30;;;;;;5113225;28;20528;-73
2022/11/27 04:03:55;;;;;;;12.23;2.50;;;7.00;87.40;;;;;;5113192;28;20048;-72
2022/11/27 04:06:21;;;;;;;5.25;2.45;;;7.00;88.10;;;;;;5113158;28;20024;-73
2022/11/27 04:08:46;;;;;;;7.45;3.17;;;7.00;87.50;;;;;;5112995;28;20032;-73
2022/11/27 04:11:13;;;;;;;11.45;2.53;;;7.00;87.60;;;;;;5097657;28;20024;-73
2022/11/27 04:13:39;;;;;;;8.93;2.50;;;7.00;87.50;;;;;;5115944;28;20096;-73
2022/11/27 04:16:05;;;;;;;7.38;2.67;;;7.00;87.50;;;;;;5116939;28;20020;-73
2022/11/27 04:18:30;;;;;;;9.75;2.85;;;7.10;86.80;;;;;;5115843;28;20062;-72
2022/11/27 04:20:56;;;;;;;10.15;2.67;;;7.00;86.90;;;;;;5116869;28;20036;-73
2022/11/27 04:23:22;;;;;;;7.90;2.67;;;7.10;87.00;;;;;;5116802;28;20020;-73
2022/11/27 04:25:48;;;;;;;7.63;2.58;;;7.10;87.00;;;;;;5115853;28;20087;-72
2022/11/27 04:28:14;;;;;;;5.30;2.60;;;7.00;87.20;;;;;;5116703;28;20027;-73
2022/11/27 04:30:39;;;;;;;10.13;3.00;;;7.00;87.30;;;;;;5116692;28;20455;-73
2022/11/27 04:33:05;;;;;;;7.65;2.63;;;7.00;87.00;;;;;;5115571;28;20022;-73
2022/11/27 04:35:31;;;;;;;8.43;2.75;;;7.00;87.00;;;;;;5116569;28;20028;-73
2022/11/27 04:37:57;;;;;;;8.07;2.95;;;7.00;87.10;;;;;;5116501;28;20029;-73
2022/11/27 04:40:23;;;;;;;9.13;2.90;;;7.00;87.00;;;;;;5116503;28;20024;-73
2022/11/27 04:42:49;;;;;;;10.13;3.88;;;7.00;86.60;;;;;;5116405;28;20039;-73
2022/11/27 04:45:15;;;;;;;6.90;2.63;;;7.10;87.00;;;;;;5116401;28;20020;-73
2022/11/27 04:47:40;;;;;;;9.93;2.72;;;7.10;86.40;;;;;;5115452;28;20055;-73
2022/11/27 04:50:07;;;;;;;8.73;3.22;;;7.10;86.80;;;;;;5115350;28;20069;-73
2022/11/27 04:52:32;;;;;;;6.35;2.83;;;7.10;86.40;;;;;;5116209;28;20020;-73
2022/11/27 04:54:58;;;;;;;7.70;2.53;;;7.20;86.30;;;;;;5116183;28;20055;-73
2022/11/27 04:57:24;;;;;;;10.60;2.85;;;7.10;86.10;;;;;;5115221;28;20033;-73
2022/11/27 04:59:49;;;;;;;8.77;3.42;;;7.10;86.30;;;;;;5115166;28;20051;-73
2022/11/27 05:02:15;;;;;;;9.70;3.22;;;7.10;86.30;;;;;;5115174;28;20036;-73
2022/11/27 05:04:41;;;;;;;6.90;3.00;;;7.10;86.20;;;;;;5116019;28;20024;-73
2022/11/27 05:07:06;;;;;;;12.95;3.33;;;7.00;86.50;;;;;;5115006;28;20032;-73
2022/11/27 05:09:32;;;;;;;6.30;3.13;;;7.10;86.20;;;;;;5115792;28;20032;-73
2022/11/27 05:11:57;;;;;;;8.05;2.72;;;7.00;86.40;;;;;;5114820;28;20016;-73
2022/11/27 05:14:27;;;;;;;9.57;3.00;;;7.00;86.60;;;;;;5115941;28;20050;-73
2022/11/27 05:16:55;;;;;;;8.27;2.90;;;7.00;86.50;;;;;;5115982;28;20024;-73
2022/11/27 05:19:24;;;;;;;12.88;3.60;;;7.00;86.50;;;;;;5115471;28;20104;-73
2022/11/27 05:21:51;;;;;;;7.68;3.35;;;7.00;86.50;;;;;;5115017;28;20032;-73
2022/11/27 05:24:19;;;;;;;10.73;3.03;;;7.00;86.50;;;;;;5115626;28;20047;-73
2022/11/27 05:26:45;;;;;;;11.25;3.15;;;7.00;86.40;;;;;;5115610;28;20016;-73
2022/11/27 05:29:11;;;;;;;10.43;3.75;;;7.00;86.80;;;;;;5115461;28;20024;-73
2022/11/27 05:31:38;;;;;;;10.68;3.28;;;7.10;86.80;;;;;;5114569;28;20092;-73
2022/11/27 05:34:03;;;;;;;8.60;3.10;;;7.00;86.60;;;;;;5115458;28;20389;-73
2022/11/27 05:36:30;;;;;;;7.07;3.28;;;7.00;86.40;;;;;;5115401;28;20031;-73
2022/11/27 05:38:56;;;;;;;9.02;3.53;;;7.00;86.50;;;;;;5115349;28;20054;-73
2022/11/27 05:41:22;;;;;;;8.63;3.35;;;7.10;86.00;;;;;;5114298;28;20478;-72
2022/11/27 05:43:47;;;;;;;11.30;3.90;;;7.10;86.70;;;;;;5114206;28;20016;-73
2022/11/27 05:46:16;;;;;;;9.27;3.67;;;7.10;86.50;;;;;;5115238;28;20031;-73
2022/11/27 05:48:42;;;;;;;9.40;3.13;;;7.20;86.60;;;;;;5115082;28;20028;-73
2022/11/27 05:51:08;;;;;;;8.43;3.72;;;7.10;86.30;;;;;;5114194;28;20031;-73
2022/11/27 05:53:34;;;;;;;8.32;3.85;;;7.10;86.30;;;;;;5115044;28;20072;-73
2022/11/27 05:56:05;;;;;;;7.53;3.63;;;7.10;86.10;;;;;;5115004;28;20066;-73
2022/11/27 05:58:31;;;;;;;9.98;3.03;;;7.10;86.50;;;;;;5114003;28;20044;-73
2022/11/27 06:00:56;;;;;;;9.20;3.42;;;7.10;86.20;;;;;;5114902;28;20039;-72
2022/11/27 06:03:22;;;;;;;9.65;3.25;;;7.00;86.30;;;;;;5113958;28;20028;-73
2022/11/27 06:05:48;;;;;;;12.88;3.75;;;7.10;86.40;;;;;;5113836;28;20036;-73
2022/11/27 06:08:13;;;;;;;10.32;3.72;;;7.10;86.20;;;;;;5113637;28;20032;-72
2022/11/27 06:10:39;;;;;;;11.18;3.75;;;7.10;86.40;;;;;;5113714;28;20028;-73
2022/11/27 06:13:05;;;;;;;8.68;3.33;;;7.10;86.30;;;;;;5113621;28;20031;-73
2022/11/27 06:15:30;;;;;;;10.75;3.22;;;7.10;86.00;;;;;;5114747;28;20024;-73
2022/11/27 06:17:56;;;;;;;7.85;3.50;;;7.10;85.80;;;;;;5113719;28;20032;-73
2022/11/27 06:20:22;;;;;;;12.98;4.03;;;7.20;86.20;;;;;;5114422;28;20052;-73
2022/11/27 06:22:48;;;;;;;7.75;4.07;;;7.20;87.00;;;;;;5096609;28;20049;-73
2022/11/27 06:25:14;;;;;;;9.15;3.63;;;7.20;85.80;;;;;;5114455;28;20028;-73
2022/11/27 06:27:40;;;;;;;10.05;3.60;;;7.10;85.70;;;;;;5096597;28;20051;-73
2022/11/27 06:30:06;;;;;;;13.38;4.28;;;7.10;86.00;;;;;;5114283;28;20085;-73
2022/11/27 06:32:32;;;;;;;8.85;3.60;;;7.10;86.00;;;;;;5114337;28;20069;-73
2022/11/27 06:34:57;;;;;;;11.88;3.80;;;7.10;86.00;;;;;;5112324;28;20028;-73
2022/11/27 06:37:23;;;;;;;10.10;3.63;;;7.10;86.10;;;;;;5113298;28;20054;-72
2022/11/27 06:39:49;;;;;;;7.00;4.03;;;7.10;86.10;;;;;;5113254;28;20057;-73
2022/11/27 06:42:15;;;;;;;7.63;3.65;;;7.10;86.30;;;;;;5114152;28;20024;-73
2022/11/27 06:44:41;;;;;;;7.88;3.95;;;7.10;86.40;;;;;;5114087;28;20033;-73
2022/11/27 06:47:07;;;;;;;14.93;3.97;;;7.20;86.70;;;;;;5114085;28;20046;-73
2022/11/27 06:49:32;;;;;;;10.50;3.95;;;7.20;86.50;;;;;;5113964;28;20025;-73
2022/11/27 06:51:58;;;;;;;9.98;3.65;;;7.20;86.20;;;;;;5113980;28;20028;-73
2022/11/27 06:54:24;;;;;;;10.48;3.67;;;7.20;86.20;;;;;;5113942;28;20028;-73
2022/11/27 06:56:50;;;;;;;10.00;4.13;;;7.20;86.00;;;;;;5114055;28;20520;-73
2022/11/27 06:59:16;;;;;;;7.18;3.42;;;7.30;85.80;;;;;;5114037;28;20031;-73
2022/11/27 07:01:42;;;;;;;11.20;3.65;;;7.30;86.00;;;;;;5113844;28;20028;-73
2022/11/27 07:04:10;;;;;;;8.82;3.80;;;7.30;85.90;;;;;;5113782;28;20058;-73
2022/11/27 07:06:36;;;;;;;9.77;3.72;;;7.20;85.70;;;;;;5112895;28;20019;-72
2022/11/27 07:09:01;;;;;;;10.27;4.10;;;7.20;85.80;;;;;;5112709;28;20039;-73
2022/11/27 07:11:28;;;;;;;10.35;4.00;;;7.20;85.80;;;;;;5113596;28;20032;-73
2022/11/27 07:13:56;;;;;;;10.63;3.90;;;7.20;85.60;;;;;;5113686;28;20074;-73
2022/11/27 07:16:22;;;;;;;10.10;4.18;;;7.30;86.00;;;;;;5112725;28;20021;-73
2022/11/27 07:18:53;;;;;;;9.30;3.90;;;7.30;86.00;;;;;;5113248;28;20032;-73
2022/11/27 07:21:18;;;;;;;9.65;3.92;;;7.30;85.50;;;;;;5113629;28;20025;-72
2022/11/27 07:23:44;;;;;;;10.23;4.15;;;7.30;86.10;;;;;;5113570;28;20080;-73
2022/11/27 07:26:22;;;;;;;8.00;3.33;;;7.20;86.30;;;;;;5112585;28;20082;-73
2022/11/27 07:28:48;;;;;;;9.15;3.70;;;7.20;86.20;;;;;;5113448;28;20017;-73
2022/11/27 07:31:17;;;;;;;11.38;4.72;;;7.30;86.40;;;;;;5112619;28;20024;-73
2022/11/27 07:33:43;;;;;;;9.00;3.97;;;7.30;86.40;;;;;;5113482;28;20042;-72
2022/11/27 07:36:17;;;;;;;6.97;3.55;;;7.20;86.30;;;;;;5113465;28;20024;-73
2022/11/27 07:38:43;;;;;;;10.45;3.90;;;7.30;86.60;;;;;;5112406;28;20043;-73
2022/11/27 07:41:09;;;;;;;9.85;3.53;;;7.30;86.70;;;;;;5113403;28;20020;-73
2022/11/27 07:43:35;;;;;;;9.88;3.78;;;7.20;87.00;;;;;;5113393;28;20035;-72
2022/11/27 07:46:06;;;;;;;9.85;3.65;;;7.20;87.00;;;;;;5114450;28;20161;-73
2022/11/27 07:48:32;;;;;;;10.55;4.07;;;7.30;87.00;;;;;;5117430;28;20016;-73
2022/11/27 07:50:58;;;;;;;10.55;4.30;;;7.30;87.40;;;;;;5117370;28;20027;-73
2022/11/27 07:53:24;;;;;;;9.43;3.67;;;7.30;87.20;;;;;;5117395;28;20102;-73
2022/11/27 07:55:50;;;;;;;8.18;3.60;;;7.30;87.30;;;;;;5117328;28;20076;-73
2022/11/27 07:58:15;;;;;;;8.25;3.60;;;7.30;87.40;;;;;;5117288;28;20040;-73
2022/11/27 08:00:41;;;;;;;11.65;4.20;;;7.30;87.40;;;;;;5117277;28;20028;-73
2022/11/27 08:03:09;;;;;;;10.15;3.80;;;7.30;87.80;;;;;;5116226;28;20032;-73
2022/11/27 08:05:35;;;;;;;10.32;5.28;;;7.30;87.80;;;;;;5117211;28;20028;-73
2022/11/27 08:08:03;;;;;;;12.30;4.10;;;7.30;88.00;;;;;;5099258;28;20035;-73
2022/11/27 08:10:35;;;;;;;10.57;4.32;;;7.30;88.00;;;;;;5116172;28;20032;-73
2022/11/27 08:13:01;;;;;;;9.88;4.07;;;7.30;88.50;;;;;;5117214;28;20080;-72
2022/11/27 08:15:26;;;;;;;9.82;4.25;;;7.30;88.80;;;;;;5115932;28;20059;-72
2022/11/27 08:17:52;;;;;;;10.88;4.30;;;7.20;88.80;;;;;;5116811;28;20032;-74
2022/11/27 08:20:18;;;;;;;7.93;3.75;;;7.30;89.10;;;;;;5116692;28;20048;-73
2022/11/27 08:22:44;;;;;;;9.00;3.80;;;7.30;89.30;;;;;;5115618;28;20057;-73
2022/11/27 08:25:10;;;;;;;11.65;3.90;;;7.30;89.20;;;;;;5115826;28;20036;-73
2022/11/27 08:27:36;;;;;;;11.85;4.28;;;7.20;89.40;;;;;;5116722;28;20040;-72
2022/11/27 08:30:03;;;;;;;15.45;4.68;;;7.30;89.50;;;;;;5116632;28;20028;-74
2022/11/27 08:32:29;;;;;;;11.52;4.43;;;7.30;89.80;;;;;;5116633;28;20023;-73
2022/11/27 08:34:54;;;;;;;7.00;3.67;;;7.30;89.80;;;;;;5116729;28;20020;-73
2022/11/27 08:37:20;;;;;;;17.58;4.35;;;7.30;89.90;;;;;;5115699;28;20035;-73
2022/11/27 08:39:46;;;;;;;9.20;4.15;;;7.30;90.10;;;;;;5116528;28;20069;-74
2022/11/27 08:42:12;;;;;;;11.50;4.00;;;7.20;90.20;;;;;;5115431;28;20024;-72
2022/11/27 08:44:38;;;;;;;10.82;3.78;;;7.20;90.30;;;;;;5098486;28;20059;-73
2022/11/27 08:47:03;;;;;;;11.68;4.63;;;7.20;90.30;;;;;;5115389;28;20051;-73
2022/11/27 08:49:30;;;;;;;11.68;4.97;;;7.30;90.40;;;;;;5116390;28;20032;-72
2022/11/27 08:51:55;;;;;;;9.65;4.97;;;7.30;90.40;;;;;;5116474;28;20024;-73
2022/11/27 08:54:21;;;;;;;14.40;4.93;;;7.20;90.50;;;;;;5115258;28;20083;-72
2022/11/27 08:56:47;;;;;;;12.00;4.78;;;7.30;90.80;;;;;;5115250;28;20044;-72
2022/11/27 08:59:12;;;;;;;13.98;3.90;;;7.30;90.50;;;;;;5116106;28;20083;-72
2022/11/27 09:01:38;;;;;;;12.00;4.55;;;7.30;90.40;;;;;;5115118;28;20036;-72
2022/11/27 09:04:03;;;;;;;12.15;4.32;;;7.30;90.50;;;;;;5115099;28;20028;-72
2022/11/27 09:06:33;;;;;;;11.98;4.13;;;7.30;90.60;;;;;;5116035;28;20028;-72
2022/11/27 09:09:00;;;;;;;9.52;3.72;;;7.30;90.50;;;;;;5115805;28;20387;-72
2022/11/27 09:11:27;;;;;;;10.65;4.82;;;7.30;90.60;;;;;;5115903;28;20027;-72
2022/11/27 09:13:53;;;;;;;9.85;4.82;;;7.30;90.60;;;;;;5115841;28;20021;-72
2022/11/27 09:16:20;;;;;;;12.32;5.00;;;7.30;90.60;;;;;;5115811;28;20029;-72
2022/11/27 09:18:48;;;;;;;9.93;4.13;;;7.30;90.60;;;;;;5114555;28;20031;-72
2022/11/27 09:21:16;;;;;;;12.45;5.10;;;7.30;90.60;;;;;;5115589;28;20024;-72
2022/11/27 09:23:42;;;;;;;12.55;5.03;;;7.30;90.60;;;;;;5115681;28;20055;-72
2022/11/27 09:26:10;;;;;;;13.15;4.43;;;7.30;90.50;;;;;;5114535;28;20028;-72
2022/11/27 09:28:37;;;;;;;13.80;5.40;;;7.30;90.60;;;;;;5115691;28;20023;-72
2022/11/27 09:31:04;;;;;;;12.95;5.53;;;7.30;90.70;;;;;;5115451;28;20028;-72
2022/11/27 09:33:36;;;;;;;10.60;4.85;;;7.40;90.50;;;;;;5115493;28;20016;-72
2022/11/27 09:36:09;;;;;;;12.50;5.35;;;7.40;90.50;;;;;;5114454;28;20012;-72
2022/11/27 09:38:36;;;;;;;13.70;5.03;;;7.30;90.60;;;;;;5115558;28;20462;-72
2022/11/27 09:41:16;;;;;;;12.15;4.63;;;7.40;90.70;;;;;;5115324;28;20111;-72
2022/11/27 09:43:51;;;;;;;9.35;4.18;;;7.40;90.70;;;;;;5114292;28;20032;-72
2022/11/27 09:46:33;;;;;;;13.55;4.47;;;7.40;90.70;;;;;;5114297;28;20559;-72
2022/11/27 09:49:01;;;;;;;;;;;7.50;90.60;;;;;;5115720;28;20027;-72
2022/11/27 09:51:30;;;;;;;12.68;4.90;;;7.40;90.70;;;;;;5114054;28;19908;-72
2022/11/27 09:54:18;;;;;;;12.77;4.72;;;7.50;90.60;;;;;;5115079;28;20054;-72
2022/11/27 09:56:49;;;;;;;11.88;4.55;;;7.40;90.80;;;;;;5115080;28;20020;-71
2022/11/27 09:59:20;;;;;;;11.98;5.00;;;7.40;91.00;;;;;;5115036;28;20041;-72
2022/11/27 10:01:46;;;;;;;12.35;4.93;;;7.40;91.10;;;;;;5114027;28;20020;-72
2022/11/27 10:04:14;;;;;;;12.98;4.53;;;7.40;91.00;;;;;;5113847;28;20044;-72
2022/11/27 10:07:06;;;;;;;15.65;5.10;;;7.50;91.10;;;;;;5114826;28;20027;-71
2022/11/27 10:10:21;;;;;;;11.95;4.90;;;7.50;91.20;;;;;;5114522;28;20032;-72
2022/11/27 10:13:17;;;;;;;12.02;4.93;;;7.50;91.20;;;;;;5097184;28;20036;-71
2022/11/27 10:15:49;;;;;;;10.50;5.35;;;7.50;91.00;;;;;;5114664;28;20020;-71
2022/11/27 10:18:54;;;;;;;12.05;5.20;;;7.60;91.00;;;;;;5114660;28;20020;-72
2022/11/27 10:21:29;;;;;;;12.90;4.78;;;7.70;91.00;;;;;;5114597;28;20044;-72
2022/11/27 10:24:06;;;;;;;14.30;4.47;;;7.70;91.00;;;;;;5114677;28;20032;-72
2022/11/27 10:26:46;;;;;;;11.38;4.70;;;7.80;90.90;;;;;;5114530;28;20102;-72
2022/11/27 10:29:46;;;;;;;11.85;4.90;;;7.80;90.90;;;;;;5114351;28;20035;-72
2022/11/27 10:32:21;;;;;;;14.18;4.90;;;7.80;90.80;;;;;;5114500;28;20023;-72
2022/11/27 10:34:52;;;;;;;17.20;5.47;;;7.80;90.80;;;;;;5114383;28;20099;-72
2022/11/27 10:37:27;;;;;;;11.70;4.60;;;7.80;91.00;;;;;;5114446;28;20016;-72
2022/11/27 10:40:05;;;;;;;12.57;5.28;;;7.90;91.00;;;;;;5114285;28;20024;-72
2022/11/27 10:43:06;;;;;;;10.95;4.88;;;7.90;91.00;;;;;;5113217;28;20028;-72
2022/11/27 10:45:50;;;;;;;11.85;4.72;;;7.90;90.90;;;;;;5114130;28;20039;-72
2022/11/27 10:48:16;;;;;;;14.18;5.60;;;7.90;90.80;;;;;;5113166;28;20031;-72
2022/11/27 10:50:44;;;;;;;10.80;4.60;;;8.00;90.80;;;;;;5113931;28;20050;-72
2022/11/27 10:53:17;;;;;;;14.35;5.80;;;8.00;90.50;;;;;;5113987;28;20028;-72
2022/11/27 10:55:42;;;;;;;12.23;5.78;;;8.00;90.70;;;;;;5113992;28;20025;-72
2022/11/27 10:58:20;;;;;;;13.50;6.03;;;8.00;90.70;;;;;;5112802;28;20069;-72
2022/11/27 11:00:46;;;;;;;12.70;5.97;;;7.90;90.70;;;;;;5112897;28;20020;-73
2022/11/27 11:03:17;;;;;;;15.25;5.47;;;7.90;90.80;;;;;;5113813;28;20024;-72
2022/11/27 11:05:59;;;;;;;12.30;5.30;;;8.00;90.80;;;;;;5113813;28;20039;-72
2022/11/27 11:08:28;;;;;;;14.30;5.77;;;8.00;90.80;;;;;;5113756;28;20020;-73
2022/11/27 11:10:59;;;;;;;17.63;6.15;;;8.00;90.50;;;;;;5113725;28;20301;-72
2022/11/27 11:13:40;;;;;;;14.52;5.72;;;8.00;90.60;;;;;;5113715;28;20043;-71
2022/11/27 11:16:17;;;;;;;12.60;5.35;;;7.90;90.70;;;;;;5113700;28;20027;-72
2022/11/27 11:18:48;;;;;;;13.07;5.28;;;8.00;90.80;;;;;;5113674;28;20031;-72
2022/11/27 11:21:33;;;;;;;10.80;5.40;;;8.00;90.70;;;;;;5112872;28;20046;-72
2022/11/27 11:24:22;;;;;;;9.40;4.90;;;8.00;90.80;;;;;;5113706;28;20036;-71
2022/11/27 11:26:51;;;;;;;11.32;5.38;;;8.00;90.80;;;;;;5113568;28;20051;-72
2022/11/27 11:29:34;;;;;;;14.10;5.30;;;8.00;90.60;;;;;;5113420;28;20024;-73
2022/11/27 11:32:24;;;;;;;14.73;5.25;;;8.00;90.60;;;;;;5113492;28;20024;-73
2022/11/27 11:34:54;;;;;;;11.57;4.95;;;8.00;90.80;;;;;;5103484;28;20032;-72
2022/11/27 11:37:37;;;;;;;14.30;5.60;;;8.00;90.50;;;;;;5113474;28;20020;-72
2022/11/27 11:40:19;;;;;;;10.98;5.50;;;7.90;90.70;;;;;;5113414;28;20027;-72
2022/11/27 11:43:14;;;;;;;16.30;5.82;;;8.00;90.90;;;;;;5113454;28;20024;-72
2022/11/27 11:45:45;;;;;;;12.50;5.38;;;8.00;90.90;;;;;;5102344;28;20032;-72
2022/11/27 11:48:24;;;;;;;8.93;5.30;;;8.00;90.90;;;;;;5113341;28;20042;-72
2022/11/27 11:51:09;;;;;;;13.68;5.25;;;8.00;90.90;;;;;;5112267;28;20482;-73
2022/11/27 11:53:36;;;;;;;13.07;5.85;;;8.00;91.00;;;;;;5113418;28;20046;-74
2022/11/27 11:56:31;;;;;;;14.82;5.80;;;8.00;91.20;;;;;;5112151;28;20027;-73
2022/11/27 11:59:05;;;;;;;11.60;5.47;;;8.00;91.10;;;;;;5112220;28;20036;-73
2022/11/27 12:02:12;;;;;;;11.13;5.72;;;8.00;91.10;;;;;;5113223;28;20050;-73
2022/11/27 12:05:05;;;;;;;14.10;5.90;;;8.00;91.20;;;;;;5098770;28;20036;-73
2022/11/27 12:07:52;;;;;;;15.77;5.13;;;8.10;91.00;;;;;;5113119;28;20047;-72
2022/11/27 12:10:29;;;;;;;9.95;4.95;;;8.10;91.20;;;;;;5113092;28;20065;-74
2022/11/27 12:13:19;;;;;;;13.02;5.57;;;8.00;91.30;;;;;;5112091;28;20024;-72
2022/11/27 12:16:17;;;;;;;11.48;5.63;;;8.10;91.40;;;;;;5113319;28;20021;-72
2022/11/27 12:19:20;;;;;;;11.98;5.03;;;8.10;91.40;;;;;;5071694;28;20041;-72
2022/11/27 12:21:54;;;;;;;13.20;4.78;;;8.10;91.50;;;;;;5113070;28;20062;-72
2022/11/27 12:24:41;;;;;;;13.23;4.90;;;8.10;91.50;;;;;;5113019;28;20028;-71
2022/11/27 12:27:17;;;;;;;10.63;4.95;;;8.10;91.50;;;;;;5113177;28;20028;-72
2022/11/27 12:30:07;;;;;;;11.65;4.95;;;8.10;91.50;;;;;;5113060;28;20024;-72
2022/11/27 12:33:02;;;;;;;8.80;4.85;;;8.10;91.50;;;;;;5114711;28;20042;-72
2022/11/27 12:35:28;;;;;;;10.45;4.85;;;8.10;91.70;;;;;;5116767;28;20042;-72
2022/11/27 12:37:54;;;;;;;10.60;4.72;;;8.10;91.30;;;;;;5116573;28;20024;-72
2022/11/27 12:40:47;;;;;;;13.80;5.13;;;8.10;91.30;;;;;;5116526;28;20031;-72
2022/11/27 12:43:15;;;;;;;;;;;8.20;91.30;;;;;;5117062;28;20032;-72
2022/11/27 12:46:06;;;;;;;11.80;5.40;;;8.10;91.30;;;;;;5116416;28;19904;-72
2022/11/27 12:49:03;;;;;;;10.55;5.30;;;8.10;91.30;;;;;;5105441;28;20060;-73
2022/11/27 12:51:36;;;;;;;12.30;4.82;;;8.10;91.10;;;;;;5115570;28;20060;-72
2022/11/27 12:54:09;;;;;;;10.73;4.53;;;8.10;91.30;;;;;;5116282;28;20035;-73
2022/11/27 12:56:50;;;;;;;8.85;5.13;;;8.20;91.40;;;;;;5116236;28;20027;-72
2022/11/27 12:59:22;;;;;;;11.98;5.45;;;8.20;91.20;;;;;;5116353;28;20052;-72
2022/11/27 13:02:25;;;;;;;14.43;5.47;;;8.20;91.20;;;;;;5116195;28;20024;-72
2022/11/27 13:05:06;;;;;;;11.38;5.32;;;8.20;91.10;;;;;;5114909;28;20127;-73
2022/11/27 13:07:42;;;;;;;10.13;4.90;;;8.30;91.20;;;;;;5115883;28;20017;-72
2022/11/27 13:10:16;;;;;;;10.50;5.28;;;8.30;91.10;;;;;;5115919;28;20028;-73
2022/11/27 13:13:03;;;;;;;12.23;5.38;;;8.30;91.10;;;;;;5115939;28;20073;-73
2022/11/27 13:15:51;;;;;;;9.30;4.47;;;8.40;91.20;;;;;;5115841;28;20024;-73